Huntersville, NC

3:38 AM EST on February 27, 2015 (GMT -0500)
Concord Regional | Change Station
CLOSE
Current Station
Airport
Location: Concord,
Elevation: 689 ft
Nearby Weather Stations
Active Advisory: Winter Weather Advisory Active Notice: Local Storm Report

Elev 689 ft 35.39 °N, 80.71 °W | Updated 23 minutes ago

Fog
Fog
30 °F
Feels Like 30 °F
N
0
Wind Variable Wind from North

Today
High -- | Low -- °F
--% Chance of Precip.
Yesterday
High -- | Low -- °F
Precip. -- in
6:55 AM 6:16 PM
Waxing Gibbous, 67% visible
Pressure 30.22 in
Visibility 1.0 miles
Clouds Overcast 5000 ft
Dew Point 28 °F
Humidity 93%
Rainfall 0.00 in
Snow Depth Not available.
UV 0 out of 12
Pollen .90 out of 12
Air Quality Not available.
Flu Activity Not available.
METAR KJQF 270815Z AUTO 00000KT 1SM BR OVC050 M01/M02 A3022 RMK AO2

More Conditions Fewer Conditions

Pressure 30.22 in
Visibility 1.0 miles
Clouds Overcast 5000 ft
Dew Point 28 °F
Humidity 93%
Rainfall 0.00 in
Snow Depth Not available.
UV 0 out of 12
Pollen .90 out of 12
Air Quality Not available.
Flu Activity Not available.
METAR KJQF 270815Z AUTO 00000KT 1SM BR OVC050 M01/M02 A3022 RMK AO2

More Conditions Fewer Conditions

10-Day Weather Forecast

Almanac

Astronomy

Feb. 27, 2015 Rise Set
Actual Time
Civil Twilight
Nautical Twilight
Astronomical Twilight
Moon
Length of Visible Light
Length of Day
Tomorrow will be .
, % of the Moon is Illuminated

Today's Extremes

State Highs State Lows

Community

WunderPhotos

Upload Photos

1,800,649 photos uploaded!

WunderBlogs® & News

Nearby

Air Quality

  Air Quality AQ Index Pollutant
Not available.

Snow Depth

Station Depth Elevation

Earthquake Activity

City Distance Mag. Time & Date
Minimum magnitude displayed is 2.5.

Coastal Water Temperatures

Place Temperature

Nearby Weather Stations

Winter Weather Advisory
Statement as of 2:37 AM EST on February 27, 2015

... Winter Weather Advisory remains in effect until 10 am EST this
morning...

* locations... the foothills and Piedmont of western North
Carolina... the northern upstate of South Carolina... and
extreme northeast Georgia.

* Hazards... widespread black ice on roadways and other hard
surfaces. Freezing fog depositing light accumulations of ice.

* Timing... through 9 am today.

* Impacts... hazardous travel conditions.

* Temperatures... falling into the upper 20s and lower 30s.

Precautionary/preparedness actions...

A Winter Weather Advisory for black ice means that refreezing of
roads will likely occur... resulting in the development of
widespread black ice. Be prepared for very slippery roadways.
Some roads that appear clear may be covered by a thin layer of
ice.

Stay tuned to NOAA Weather Radio or your favorite source of
weather information for the latest updates. Additional details
can be found at www.Weather.Gov/gsp.


07